Аэропорт: Пулково. Санкт-Петербург

ICAO: ULLI

METAR:
2022-06-26 10:00:00
ULLI 261000Z 34004MPS 280V020 CAVOK 28/18 Q1021 R28R/090060 NOSIG
METAR:
2022-06-26 07:53:00
TAF ULLI 260753Z 2609/2709 30003MPS CAVOK TX31/2611Z TN19/2702Z